createdAt,value
2023-02-06T00:00:23.590Z,12.40
2023-02-06T00:03:15.912Z,17.70
2023-02-06T00:05:56.947Z,18.50
2023-02-06T00:08:29.877Z,15.60
2023-02-06T00:11:07.505Z,16.90
2023-02-06T00:13:40.312Z,17.90
2023-02-06T00:16:20.051Z,18.80
2023-02-06T00:18:53.117Z,21.60
2023-02-06T00:21:27.258Z,20.50
2023-02-06T00:24:02.352Z,18.40
2023-02-06T00:26:35.380Z,17.80
2023-02-06T00:29:08.226Z,17.50
2023-02-06T00:31:41.142Z,16.00
2023-02-06T00:34:13.515Z,15.60
2023-02-06T00:36:45.959Z,13.30
2023-02-06T00:39:19.564Z,12.20
2023-02-06T00:41:51.936Z,13.90
2023-02-06T00:44:24.632Z,11.90
2023-02-06T00:46:58.968Z,11.60
2023-02-06T00:49:31.220Z,14.90
2023-02-06T00:52:03.607Z,17.60
2023-02-06T00:54:35.863Z,18.30
2023-02-06T00:57:08.063Z,18.80
2023-02-06T00:59:40.323Z,18.00
2023-02-06T01:02:12.554Z,19.70
2023-02-06T01:04:44.942Z,12.70
2023-02-06T01:07:17.324Z,9.50
2023-02-06T01:09:49.784Z,8.10
2023-02-06T01:12:22.467Z,8.40
2023-02-06T01:14:54.936Z,6.60
2023-02-06T01:17:27.185Z,6.80
2023-02-06T01:19:59.687Z,7.40
2023-02-06T01:22:34.135Z,6.40
2023-02-06T01:25:07.710Z,6.80
2023-02-06T01:27:41.009Z,6.30
2023-02-06T01:30:15.328Z,7.30
2023-02-06T01:32:47.734Z,10.00
2023-02-06T01:35:21.404Z,11.40
2023-02-06T01:37:53.980Z,13.10
2023-02-06T01:40:26.567Z,14.50
2023-02-06T01:42:58.854Z,17.90
2023-02-06T01:45:41.378Z,17.80
2023-02-06T01:48:19.550Z,17.80
2023-02-06T01:50:55.293Z,16.80
2023-02-06T01:53:28.798Z,14.10
2023-02-06T01:56:04.647Z,14.20
2023-02-06T01:58:40.095Z,14.50
2023-02-06T02:01:13.086Z,16.40
2023-02-06T02:03:46.817Z,16.20
2023-02-06T02:06:24.008Z,14.80
2023-02-06T02:08:58.464Z,16.40
2023-02-06T02:11:35.198Z,15.00
2023-02-06T02:14:11.577Z,14.20
2023-02-06T02:16:54.463Z,14.90
2023-02-06T02:20:07.719Z,10.90
2023-02-06T02:22:56.993Z,12.00
2023-02-06T02:26:15.730Z,10.40
2023-02-06T02:29:26.000Z,11.80
2023-02-06T02:32:28.792Z,10.90
2023-02-06T02:35:25.525Z,9.80
2023-02-06T02:38:07.424Z,10.70
2023-02-06T02:40:48.846Z,9.50
2023-02-06T02:43:36.151Z,10.60
2023-02-06T02:46:15.458Z,11.60
2023-02-06T02:48:52.132Z,11.70
2023-02-06T02:51:24.864Z,12.30
2023-02-06T02:53:58.934Z,11.50
2023-02-06T02:56:33.653Z,10.90
2023-02-06T02:59:10.043Z,11.00
2023-02-06T03:01:46.908Z,10.70
2023-02-06T03:04:24.182Z,10.90
2023-02-06T03:07:23.641Z,11.40
2023-02-06T03:10:05.078Z,9.90
2023-02-06T03:12:45.504Z,10.50
2023-02-06T03:15:26.413Z,12.30
2023-02-06T03:18:05.377Z,14.30
2023-02-06T03:20:42.119Z,13.80
2023-02-06T03:23:18.343Z,12.70
2023-02-06T03:28:32.450Z,12.90
2023-02-06T03:31:07.229Z,16.10
2023-02-06T03:33:43.470Z,20.40
2023-02-06T03:36:17.461Z,19.40
2023-02-06T03:38:52.242Z,19.00
2023-02-06T03:41:28.859Z,18.60
2023-02-06T03:44:02.757Z,18.00
2023-02-06T03:46:36.059Z,19.20
2023-02-06T03:49:12.884Z,25.90
2023-02-06T03:51:48.839Z,23.30
2023-02-06T03:54:25.610Z,20.70
2023-02-06T03:57:01.070Z,16.10
2023-02-06T03:59:34.147Z,14.40
2023-02-06T04:02:07.263Z,14.80
2023-02-06T04:04:41.571Z,17.10
2023-02-06T04:07:18.166Z,18.50
2023-02-06T04:09:50.850Z,17.60
2023-02-06T04:12:23.705Z,17.00
2023-02-06T04:14:56.550Z,17.20
2023-02-06T04:17:46.385Z,18.80
2023-02-06T04:20:21.781Z,20.50
2023-02-06T04:22:54.687Z,18.90
2023-02-06T04:25:27.240Z,18.60
2023-02-06T04:27:59.437Z,16.50
2023-02-06T04:30:31.549Z,17.20
2023-02-06T04:33:03.769Z,18.60
2023-02-06T04:35:36.396Z,19.60
2023-02-06T04:38:08.628Z,21.50
2023-02-06T04:40:40.856Z,26.70
2023-02-06T04:43:13.564Z,24.30
2023-02-06T04:45:45.621Z,18.80
2023-02-06T04:48:17.715Z,19.20
2023-02-06T04:50:50.205Z,18.20
2023-02-06T04:53:22.572Z,18.90
2023-02-06T04:55:56.459Z,17.70
2023-02-06T04:58:28.925Z,17.90
2023-02-06T05:01:01.665Z,18.80
2023-02-06T05:03:34.455Z,20.00
2023-02-06T05:06:07.982Z,18.70
2023-02-06T05:08:40.394Z,17.50
2023-02-06T05:11:12.825Z,18.30
2023-02-06T05:13:45.617Z,16.70
2023-02-06T05:16:19.834Z,15.00
2023-02-06T05:18:56.737Z,13.20
2023-02-06T05:21:29.103Z,14.40
2023-02-06T05:24:01.238Z,14.80
2023-02-06T05:26:33.417Z,15.80
2023-02-06T05:29:05.604Z,14.70
2023-02-06T05:31:38.742Z,14.00
2023-02-06T05:34:12.437Z,14.30
2023-02-06T05:36:44.575Z,16.40
2023-02-06T05:39:16.732Z,17.80
2023-02-06T05:41:49.294Z,21.50
2023-02-06T05:44:21.465Z,19.70
2023-02-06T05:46:53.635Z,16.40
2023-02-06T05:49:25.905Z,18.00
2023-02-06T05:51:58.301Z,25.10
2023-02-06T05:54:30.545Z,16.10
2023-02-06T05:57:02.948Z,14.90
2023-02-06T05:59:35.310Z,14.50
2023-02-06T06:02:07.875Z,16.70
2023-02-06T06:04:40.303Z,16.20
2023-02-06T06:07:13.741Z,20.00
2023-02-06T06:09:46.228Z,17.60
2023-02-06T06:12:18.727Z,16.50
2023-02-06T06:14:50.893Z,13.80
2023-02-06T06:17:24.271Z,13.00
2023-02-06T06:19:57.264Z,13.90
2023-02-06T06:22:30.041Z,14.00
2023-02-06T06:25:02.503Z,14.30
2023-02-06T06:27:34.893Z,15.20
2023-02-06T06:30:09.004Z,15.20
2023-02-06T06:32:41.682Z,14.60
2023-02-06T06:35:14.149Z,14.50
2023-02-06T06:37:46.637Z,11.60
2023-02-06T06:40:19.232Z,14.30
2023-02-06T06:42:51.537Z,15.40
2023-02-06T06:45:24.232Z,16.90
2023-02-06T06:47:56.354Z,17.60
2023-02-06T06:50:28.529Z,26.00
2023-02-06T06:53:00.662Z,32.80
2023-02-06T06:55:32.910Z,50.10
2023-02-06T06:58:05.372Z,53.20
2023-02-06T07:00:38.721Z,47.00
2023-02-06T07:03:11.884Z,37.60
2023-02-06T07:05:52.975Z,30.80
2023-02-06T07:08:30.084Z,31.20
2023-02-06T07:11:03.592Z,27.70
2023-02-06T07:13:35.834Z,29.90
2023-02-06T07:16:09.700Z,23.40
2023-02-06T07:21:20.016Z,26.70
2023-02-06T07:23:52.249Z,33.50
2023-02-06T07:26:24.873Z,25.60
2023-02-06T07:28:57.749Z,41.30
2023-02-06T07:31:31.025Z,60.40
2023-02-06T07:34:04.214Z,54.90
2023-02-06T07:36:37.534Z,43.40
2023-02-06T07:39:09.810Z,39.20
2023-02-06T07:41:43.016Z,32.30
2023-02-06T07:44:18.655Z,28.60
2023-02-06T07:46:52.912Z,32.60
2023-02-06T07:49:25.507Z,29.70
2023-02-06T07:51:58.040Z,32.20
2023-02-06T07:54:31.417Z,25.60
2023-02-06T07:57:03.794Z,25.60
2023-02-06T07:59:36.204Z,25.50
2023-02-06T08:02:10.808Z,24.00
2023-02-06T08:04:44.186Z,24.10
2023-02-06T08:07:23.287Z,23.20
2023-02-06T08:09:56.205Z,21.80
2023-02-06T08:12:30.443Z,23.80
2023-02-06T08:15:02.789Z,20.30
2023-02-06T08:17:34.996Z,20.30
2023-02-06T08:20:07.673Z,22.70
2023-02-06T08:22:39.852Z,21.30
2023-02-06T08:25:12.312Z,21.60
2023-02-06T08:27:44.661Z,21.60
2023-02-06T08:30:17.677Z,18.70
2023-02-06T08:32:50.571Z,22.70
2023-02-06T08:35:23.692Z,22.40
2023-02-06T08:37:56.006Z,24.40
2023-02-06T08:40:28.210Z,22.60
2023-02-06T08:43:00.894Z,26.90
2023-02-06T08:45:33.690Z,23.90
2023-02-06T08:48:07.871Z,27.90
2023-02-06T08:50:40.291Z,27.30
2023-02-06T08:53:12.817Z,27.40
2023-02-06T08:55:45.192Z,28.30
2023-02-06T08:58:24.117Z,27.20
2023-02-06T09:00:58.427Z,24.10
2023-02-06T09:03:31.650Z,18.30
2023-02-06T09:06:10.119Z,14.30
2023-02-06T09:08:43.773Z,30.40
2023-02-06T09:11:18.709Z,27.40
2023-02-06T09:13:51.758Z,15.30
2023-02-06T09:16:25.198Z,16.40
2023-02-06T09:19:01.528Z,15.00
2023-02-06T09:24:12.823Z,11.40
2023-02-06T09:26:59.016Z,12.60
2023-02-06T09:29:33.885Z,68.40
2023-02-06T09:32:06.363Z,14.10
2023-02-06T09:34:39.106Z,10.20
2023-02-06T09:37:11.388Z,24.20
2023-02-06T09:39:51.314Z,28.50
2023-02-06T09:42:32.801Z,14.00
2023-02-06T09:45:14.016Z,13.30
2023-02-06T09:47:51.736Z,13.10
2023-02-06T09:50:31.829Z,13.60
2023-02-06T09:53:18.385Z,11.90
2023-02-06T09:55:56.945Z,13.60
2023-02-06T09:58:43.077Z,13.20
2023-02-06T10:01:22.041Z,12.40
2023-02-06T10:04:14.102Z,11.60
2023-02-06T10:06:55.299Z,13.60
2023-02-06T10:09:36.815Z,15.30
2023-02-06T10:12:15.942Z,14.90
2023-02-06T10:14:52.174Z,15.60
2023-02-06T10:20:01.631Z,17.30
2023-02-06T10:22:41.713Z,17.20
2023-02-06T10:25:26.206Z,19.90
2023-02-06T10:28:03.983Z,18.50
2023-02-06T10:30:50.851Z,20.80
2023-02-06T10:33:34.033Z,22.40
2023-02-06T10:36:12.652Z,24.70
2023-02-06T10:39:07.935Z,25.20
2023-02-06T10:41:50.246Z,26.20
2023-02-06T10:44:29.420Z,22.10
2023-02-06T10:47:02.142Z,22.40
2023-02-06T10:49:40.123Z,23.00
2023-02-06T10:52:23.779Z,21.00
2023-02-06T10:55:00.011Z,23.30
2023-02-06T10:57:33.912Z,20.50
2023-02-06T11:00:17.186Z,22.00
2023-02-06T11:03:06.879Z,19.60
2023-02-06T11:05:41.623Z,17.30
2023-02-06T11:08:21.678Z,16.20
2023-02-06T11:10:54.171Z,18.10
2023-02-06T11:13:30.871Z,16.90
2023-02-06T11:16:08.380Z,17.80
2023-02-06T11:18:45.088Z,16.60
2023-02-06T11:21:38.544Z,15.90
2023-02-06T11:24:15.566Z,15.90
2023-02-06T11:26:51.741Z,17.40
2023-02-06T11:29:33.038Z,16.80
2023-02-06T11:32:08.553Z,14.60
2023-02-06T11:34:52.040Z,13.90
2023-02-06T11:37:37.994Z,15.50
2023-02-06T11:40:29.480Z,15.10
2023-02-06T11:43:19.440Z,16.70
2023-02-06T11:46:07.033Z,14.60
2023-02-06T11:48:41.780Z,16.50
2023-02-06T11:51:15.076Z,15.50
2023-02-06T11:54:01.971Z,13.10
2023-02-06T11:56:36.222Z,13.40
2023-02-06T11:59:23.551Z,13.00
2023-02-06T12:01:57.116Z,15.30
2023-02-06T12:04:35.934Z,15.20
2023-02-06T12:07:15.628Z,16.00
2023-02-06T12:09:48.330Z,15.60
2023-02-06T12:12:30.245Z,17.10
2023-02-06T12:15:36.148Z,19.10
2023-02-06T12:18:23.461Z,21.20
2023-02-06T12:21:01.847Z,17.70
2023-02-06T12:23:40.615Z,16.10
2023-02-06T12:26:17.511Z,16.50
2023-02-06T12:28:59.108Z,15.90
2023-02-06T12:31:38.285Z,16.80
2023-02-06T12:34:18.598Z,15.20
2023-02-06T12:37:09.319Z,14.30
2023-02-06T12:39:43.243Z,12.60
2023-02-06T12:42:36.367Z,13.00
2023-02-06T12:45:31.941Z,11.20
2023-02-06T12:48:13.980Z,11.70
2023-02-06T12:50:52.875Z,15.20
2023-02-06T12:53:30.762Z,21.10
2023-02-06T12:56:07.595Z,18.70
2023-02-06T12:59:04.833Z,18.80
2023-02-06T13:01:52.248Z,12.20
2023-02-06T13:04:27.619Z,12.80
2023-02-06T13:07:06.828Z,19.60
2023-02-06T13:09:42.871Z,14.60
2023-02-06T13:12:21.047Z,16.00
2023-02-06T13:14:56.830Z,15.00
2023-02-06T13:17:34.606Z,14.30
2023-02-06T13:20:14.562Z,15.30
2023-02-06T13:22:50.465Z,18.30
2023-02-06T13:25:54.834Z,14.70
2023-02-06T13:28:58.306Z,13.90
2023-02-06T13:31:34.628Z,17.70
2023-02-06T13:34:17.299Z,16.50
2023-02-06T13:36:55.325Z,22.10
2023-02-06T13:39:34.951Z,13.70
2023-02-06T13:42:43.048Z,29.50
2023-02-06T13:45:23.643Z,23.10
2023-02-06T13:48:37.143Z,69.80
2023-02-06T13:51:24.913Z,21.30
2023-02-06T13:54:42.232Z,20.30
2023-02-06T13:57:29.563Z,14.30
2023-02-06T14:00:12.066Z,15.70
2023-02-06T14:02:48.924Z,19.90
2023-02-06T14:05:25.091Z,19.90
2023-02-06T14:08:07.494Z,21.70
2023-02-06T14:11:06.352Z,16.80
2023-02-06T14:14:01.681Z,16.30
2023-02-06T14:16:49.638Z,18.90
2023-02-06T14:19:33.564Z,30.80
2023-02-06T14:22:19.196Z,22.50
2023-02-06T14:25:15.146Z,22.50
2023-02-06T14:28:01.961Z,23.70
2023-02-06T14:30:44.273Z,23.70
2023-02-06T14:33:44.226Z,22.40
2023-02-06T14:36:32.565Z,19.30
2023-02-06T14:42:13.519Z,20.00
2023-02-06T14:44:50.700Z,22.60
2023-02-06T14:47:27.344Z,24.60
2023-02-06T14:50:01.898Z,22.70
2023-02-06T14:52:35.827Z,20.60
2023-02-06T14:55:36.764Z,22.00
2023-02-06T14:58:20.125Z,21.50
2023-02-06T15:00:52.704Z,17.30
2023-02-06T15:03:26.943Z,16.60
2023-02-06T15:06:22.158Z,27.00
2023-02-06T15:08:55.219Z,20.60
2023-02-06T15:11:32.887Z,16.90
2023-02-06T15:14:09.194Z,18.00
2023-02-06T15:16:51.094Z,21.70
2023-02-06T15:19:25.636Z,19.80
2023-02-06T15:22:02.336Z,18.90
2023-02-06T15:24:51.297Z,28.90
2023-02-06T15:27:30.041Z,32.90
2023-02-06T15:30:04.807Z,32.40
2023-02-06T15:32:45.180Z,33.90
2023-02-06T15:35:25.315Z,31.30
2023-02-06T15:38:03.893Z,32.40
2023-02-06T15:40:42.389Z,33.30
2023-02-06T15:43:17.354Z,36.50
2023-02-06T15:45:51.784Z,36.50
2023-02-06T15:48:29.442Z,39.50
2023-02-06T15:51:03.887Z,38.00
2023-02-06T15:53:39.841Z,25.90
2023-02-06T15:56:23.151Z,23.90
2023-02-06T15:59:01.579Z,24.80
2023-02-06T16:01:37.363Z,25.30
2023-02-06T16:04:14.633Z,22.10
2023-02-06T16:06:48.406Z,23.30
2023-02-06T16:09:23.778Z,28.20
2023-02-06T16:11:58.308Z,30.70
2023-02-06T16:14:36.616Z,30.50
2023-02-06T16:17:26.702Z,33.30
2023-02-06T16:20:03.091Z,32.30
2023-02-06T16:25:22.885Z,44.60
2023-02-06T16:27:55.737Z,48.40
2023-02-06T16:30:30.986Z,51.80
2023-02-06T16:33:20.211Z,53.70
2023-02-06T16:35:53.049Z,49.60
2023-02-06T16:38:25.368Z,64.20
2023-02-06T16:40:58.068Z,74.10
2023-02-06T16:43:33.087Z,78.00
2023-02-06T16:46:05.471Z,79.80
2023-02-06T16:48:38.470Z,86.10
2023-02-06T16:51:13.677Z,76.00
2023-02-06T16:53:48.363Z,71.80
2023-02-06T16:56:22.720Z,68.50
2023-02-06T16:58:54.955Z,69.50
2023-02-06T17:01:29.851Z,70.10
2023-02-06T17:04:02.197Z,72.70
2023-02-06T17:06:36.975Z,72.10
2023-02-06T17:09:14.454Z,65.80
2023-02-06T17:11:46.728Z,65.50
2023-02-06T17:14:19.067Z,91.70
2023-02-06T17:16:51.643Z,177.60
2023-02-06T17:19:26.264Z,302.10
2023-02-06T17:21:58.787Z,408.00
2023-02-06T17:24:31.150Z,492.40
2023-02-06T17:27:03.737Z,470.70
2023-02-06T17:29:36.338Z,552.20
2023-02-06T17:32:09.447Z,437.60
2023-02-06T17:34:41.668Z,364.00
2023-02-06T17:37:20.975Z,340.30
2023-02-06T17:39:54.393Z,408.00
2023-02-06T17:42:26.823Z,249.30
2023-02-06T17:44:59.194Z,212.30
2023-02-06T17:47:31.642Z,228.00
2023-02-06T17:50:04.078Z,209.00
2023-02-06T17:52:36.372Z,205.00
2023-02-06T17:55:10.474Z,200.90
2023-02-06T17:57:43.046Z,234.70
2023-02-06T18:00:18.660Z,223.80
2023-02-06T18:02:51.848Z,171.90
2023-02-06T18:05:25.064Z,128.70
2023-02-06T18:07:57.067Z,142.20
2023-02-06T18:10:29.340Z,186.00
2023-02-06T18:13:01.562Z,190.50
2023-02-06T18:15:33.684Z,182.40
2023-02-06T18:18:06.005Z,177.20
2023-02-06T18:20:40.491Z,186.80
2023-02-06T18:23:14.681Z,171.30
2023-02-06T18:25:47.234Z,135.40
2023-02-06T18:28:20.160Z,104.00
2023-02-06T18:30:52.454Z,81.30
2023-02-06T18:33:24.809Z,61.50
2023-02-06T18:35:57.541Z,68.70
2023-02-06T18:38:29.813Z,85.80
2023-02-06T18:41:05.914Z,115.70
2023-02-06T18:43:38.201Z,75.00
2023-02-06T18:46:11.289Z,57.20
2023-02-06T18:48:44.196Z,50.20
2023-02-06T18:51:16.278Z,42.60
2023-02-06T18:53:48.554Z,39.80
2023-02-06T18:56:21.171Z,35.00
2023-02-06T18:58:53.319Z,38.30
2023-02-06T19:01:27.325Z,44.20
2023-02-06T19:04:00.857Z,48.40
2023-02-06T19:06:36.776Z,43.80
2023-02-06T19:09:09.933Z,45.00
2023-02-06T19:11:43.568Z,49.10
2023-02-06T19:14:18.446Z,46.10
2023-02-06T19:16:52.974Z,55.60
2023-02-06T19:19:24.962Z,53.40
2023-02-06T19:21:58.073Z,49.30
2023-02-06T19:24:31.122Z,43.90
2023-02-06T19:27:03.261Z,46.20
2023-02-06T19:29:36.698Z,50.10
2023-02-06T19:32:10.282Z,47.20
2023-02-06T19:34:45.335Z,47.10
2023-02-06T19:37:17.510Z,43.10
2023-02-06T19:39:50.014Z,50.80
2023-02-06T19:42:22.315Z,48.80
2023-02-06T19:44:55.936Z,42.40
2023-02-06T19:47:28.087Z,40.60
2023-02-06T19:50:00.323Z,45.70
2023-02-06T19:52:32.974Z,45.20
2023-02-06T19:55:05.375Z,45.70
2023-02-06T19:57:39.704Z,41.90
2023-02-06T20:00:14.273Z,48.30
2023-02-06T20:02:47.434Z,48.10
2023-02-06T20:05:26.080Z,57.70
2023-02-06T20:07:58.143Z,58.80
2023-02-06T20:10:30.549Z,50.20
2023-02-06T20:13:03.086Z,47.80
2023-02-06T20:15:40.460Z,43.80
2023-02-06T20:18:12.839Z,38.50
2023-02-06T20:20:47.249Z,38.50
2023-02-06T20:23:19.601Z,45.50
2023-02-06T20:25:52.000Z,46.40
2023-02-06T20:28:24.784Z,59.80
2023-02-06T20:30:57.390Z,70.70
2023-02-06T20:33:29.863Z,67.30
2023-02-06T20:36:08.164Z,64.90
2023-02-06T20:38:40.488Z,57.80
2023-02-06T20:41:13.081Z,68.10
2023-02-06T20:43:47.816Z,64.90
2023-02-06T20:46:21.783Z,75.90
2023-02-06T20:48:58.956Z,103.80
2023-02-06T20:51:32.143Z,127.70
2023-02-06T20:54:04.511Z,113.90
2023-02-06T20:56:36.818Z,101.00
2023-02-06T20:59:09.791Z,85.20
2023-02-06T21:01:42.737Z,78.30
2023-02-06T21:04:16.432Z,78.40
2023-02-06T21:06:50.228Z,65.60
2023-02-06T21:09:22.554Z,43.30
2023-02-06T21:11:54.911Z,35.30
2023-02-06T21:14:30.071Z,36.80
2023-02-06T21:17:02.394Z,31.80
2023-02-06T21:19:34.477Z,34.00
2023-02-06T21:22:06.834Z,32.90
2023-02-06T21:24:39.096Z,35.40
2023-02-06T21:27:11.180Z,34.80
2023-02-06T21:29:43.276Z,39.40
2023-02-06T21:32:15.798Z,38.50
2023-02-06T21:34:48.500Z,36.80
2023-02-06T21:37:22.803Z,38.40
2023-02-06T21:39:54.885Z,39.40
2023-02-06T21:42:27.648Z,39.30
2023-02-06T21:44:59.823Z,38.90
2023-02-06T21:47:32.048Z,39.10
2023-02-06T21:50:04.369Z,39.40
2023-02-06T21:52:38.891Z,42.20
2023-02-06T21:55:11.797Z,41.20
2023-02-06T21:57:43.987Z,42.80
2023-02-06T22:00:18.949Z,41.10
2023-02-06T22:02:51.286Z,44.90
2023-02-06T22:05:24.655Z,45.20
2023-02-06T22:07:58.520Z,45.10
2023-02-06T22:10:30.841Z,48.40
2023-02-06T22:13:03.012Z,47.40
2023-02-06T22:15:35.827Z,47.60
2023-02-06T22:18:10.410Z,48.80
2023-02-06T22:20:42.600Z,44.10
2023-02-06T22:23:14.808Z,58.50
2023-02-06T22:25:50.467Z,79.80
2023-02-06T22:28:22.598Z,108.90
2023-02-06T22:30:54.791Z,101.60
2023-02-06T22:33:27.003Z,90.00
2023-02-06T22:35:59.345Z,68.30
2023-02-06T22:38:31.467Z,65.70
2023-02-06T22:41:06.281Z,50.40
2023-02-06T22:43:39.811Z,53.50
2023-02-06T22:46:22.346Z,52.10
2023-02-06T22:48:55.416Z,58.40
2023-02-06T22:51:28.055Z,64.40
2023-02-06T22:54:00.725Z,65.10
2023-02-06T22:56:36.985Z,64.60
2023-02-06T22:59:11.888Z,63.40
2023-02-06T23:01:46.308Z,71.00
2023-02-06T23:04:20.532Z,65.20
2023-02-06T23:06:53.666Z,64.90
2023-02-06T23:09:31.056Z,68.40
2023-02-06T23:12:04.277Z,76.00
2023-02-06T23:14:36.664Z,69.60
2023-02-06T23:17:08.821Z,71.00
2023-02-06T23:19:41.279Z,69.20
2023-02-06T23:22:13.470Z,67.00
2023-02-06T23:24:45.664Z,60.70
2023-02-06T23:27:19.817Z,57.30
2023-02-06T23:29:51.986Z,54.40
2023-02-06T23:32:24.147Z,55.10
2023-02-06T23:34:59.705Z,52.70
2023-02-06T23:37:32.023Z,52.60
2023-02-06T23:40:05.570Z,46.00
2023-02-06T23:42:38.766Z,39.60
2023-02-06T23:45:11.814Z,39.70
2023-02-06T23:47:44.012Z,39.80
2023-02-06T23:50:16.643Z,40.10
2023-02-06T23:52:48.786Z,39.60
2023-02-06T23:55:25.053Z,43.10
2023-02-06T23:57:57.775Z,49.80
